Погода Тарасово-Меловскоена неделю

Ростовская область, Россия

22 - 28 мая
  • 22мая
    Сегодня
    +10°
    +28°
    Ясно и безоблачно
    ВремяПогодаТемператураВлажностьДавлениеВетер, м/сВероятность осадков
    00:00Ясно и безоблачно+12°C60 %750 мм2.9 м/с2 %
    03:00Небольшая облачность+12°C58 %750 мм2.1 м/с2 %
    06:00Облачно с прояснениями+13°C63 %751 мм1.8 м/с2 %
    09:00Ясно и безоблачно+22°C41 %751 мм1.2 м/с2 %
    12:00Ясно и безоблачно+27°C28 %751 мм2.0 м/с2 %
    15:00Ясно и безоблачно+28°C29 %750 мм1.5 м/с2 %
    18:00Небольшая облачность+26°C30 %749 мм0.5 м/с2 %
    21:00Практически безоблачно+18°C58 %749 мм2.0 м/с2 %
  • 23мая
    Четверг
    +11°
    +28°
    Ясно и безоблачно
    ВремяПогодаТемператураВлажностьДавлениеВетер, м/сВероятность осадков
    00:00Ясно и безоблачно+17°C51 %749 мм0.9 м/с2 %
    03:00Ясно и безоблачно+11°C72 %749 мм2.0 м/с2 %
    06:00Ясно и безоблачно+13°C67 %749 мм1.7 м/с2 %
    09:00Ясно и безоблачно+23°C43 %750 мм2.0 м/с2 %
    12:00Практически безоблачно+27°C31 %750 мм1.8 м/с1 %
    15:00Ясно и безоблачно+28°C30 %750 мм2.9 м/с14 %
    18:00Практически безоблачно+23°C48 %750 мм5.1 м/с21 %
    21:00Практически безоблачно+19°C63 %751 мм4.5 м/с2 %
  • 24мая
    Пятница
    +7°
    +21°
    Ясно и безоблачно
    ВремяПогодаТемператураВлажностьДавлениеВетер, м/сВероятность осадков
    00:00Ясно и безоблачно+15°C68 %751 мм4.6 м/с2 %
    03:00Ясно и безоблачно+13°C47 %752 мм6.5 м/с2 %
    06:00Ясно и безоблачно+11°C44 %754 мм6.1 м/с2 %
    09:00Ясно и безоблачно+16°C36 %755 мм6.6 м/с2 %
    12:00Ясно и безоблачно+20°C29 %756 мм6.6 м/с2 %
    15:00Ясно и безоблачно+21°C22 %756 мм6.7 м/с2 %
    18:00Ясно и безоблачно+20°C24 %755 мм6.7 м/с2 %
    21:00Ясно и безоблачно+15°C28 %757 мм5.4 м/с2 %
  • 25мая
    Суббота
    +9°
    +22°
    Ясно и безоблачно
    ВремяПогодаТемператураВлажностьДавлениеВетер, м/сВероятность осадков
    00:00Ясно и безоблачно+11°C30 %757 мм4.6 м/с2 %
    03:00Ясно и безоблачно+8°C36 %757 мм4.1 м/с2 %
    06:00Ясно и безоблачно+9°C42 %758 мм4.5 м/с2 %
    09:00Ясно и безоблачно+16°C32 %759 мм5.8 м/с2 %
    12:00Ясно и безоблачно+20°C25 %758 мм5.7 м/с2 %
    15:00Ясно и безоблачно+22°C25 %757 мм5.3 м/с2 %
    18:00Ясно и безоблачно+21°C28 %756 мм5.0 м/с2 %
    21:00Ясно и безоблачно+16°C40 %755 мм3.4 м/с2 %
  • 26мая
    Воскресенье
    +11°
    +24°
    Облачно с прояснениями
    ВремяПогодаТемператураВлажностьДавлениеВетер, м/сВероятность осадков
    00:00Ясно и безоблачно+12°C43 %755 мм3.2 м/с2 %
    03:00Облачно с прояснениями+9°C46 %755 мм2.7 м/с2 %
    06:00Пасмурно, сплошная облачность+11°C47 %755 мм3.2 м/с2 %
    09:00Облачно с прояснениями+17°C32 %755 мм4.1 м/с2 %
    12:00Облачно с прояснениями+21°C25 %754 мм5.4 м/с2 %
    15:00Облачно с прояснениями+23°C24 %753 мм5.6 м/с2 %
    18:00Небольшая облачность+22°C26 %753 мм4.8 м/с2 %
    21:00Облачно с прояснениями+16°C43 %753 мм2.5 м/с2 %
Мы используем cookies
Соглашаюсь